createdAt,value
2019-02-21T00:02:02.214Z,11.20
2019-02-21T00:04:30.705Z,12.17
2019-02-21T00:06:59.170Z,12.50
2019-02-21T00:09:27.664Z,13.70
2019-02-21T00:11:56.336Z,12.80
2019-02-21T00:14:24.950Z,15.17
2019-02-21T00:16:53.653Z,13.03
2019-02-21T00:19:23.909Z,13.53
2019-02-21T00:21:52.443Z,14.07
2019-02-21T00:24:20.988Z,14.13
2019-02-21T00:26:49.443Z,15.37
2019-02-21T00:29:17.900Z,14.17
2019-02-21T00:31:46.388Z,15.27
2019-02-21T00:34:15.076Z,14.37
2019-02-21T00:36:43.676Z,14.90
2019-02-21T00:39:12.193Z,17.07
2019-02-21T00:41:40.660Z,17.83
2019-02-21T00:44:09.137Z,16.80
2019-02-21T00:46:37.760Z,16.33
2019-02-21T00:49:06.224Z,15.83
2019-02-21T00:51:34.691Z,16.00
2019-02-21T00:54:03.258Z,15.10
2019-02-21T00:56:33.261Z,14.43
2019-02-21T00:59:01.738Z,14.97
2019-02-21T01:01:30.310Z,14.07
2019-02-21T01:03:58.783Z,13.97
2019-02-21T01:06:27.335Z,14.07
2019-02-21T01:08:56.886Z,14.23
2019-02-21T01:11:25.417Z,13.67
2019-02-21T01:13:53.900Z,13.60
2019-02-21T01:16:22.462Z,13.93
2019-02-21T01:18:50.939Z,14.37
2019-02-21T01:21:19.396Z,14.40
2019-02-21T01:23:50.899Z,14.57
2019-02-21T01:26:19.448Z,15.17
2019-02-21T01:28:47.926Z,15.23
2019-02-21T01:31:16.433Z,14.87
2019-02-21T01:33:44.956Z,14.23
2019-02-21T01:36:13.462Z,15.23
2019-02-21T01:38:41.936Z,16.17
2019-02-21T01:41:10.636Z,15.80
2019-02-21T01:43:39.158Z,15.43
2019-02-21T01:46:07.723Z,17.03
2019-02-21T01:48:36.404Z,14.90
2019-02-21T01:51:04.912Z,16.43
2019-02-21T01:53:33.408Z,15.47
2019-02-21T01:56:01.971Z,16.43
2019-02-21T01:58:30.454Z,16.80
2019-02-21T02:01:08.033Z,16.17
2019-02-21T02:03:29.387Z,17.67
2019-02-21T02:05:57.972Z,16.67
2019-02-21T02:08:26.483Z,17.67
2019-02-21T02:10:55.007Z,17.97
2019-02-21T02:13:24.895Z,18.40
2019-02-21T02:15:53.990Z,17.00
2019-02-21T02:18:22.502Z,17.93
2019-02-21T02:20:50.994Z,16.83
2019-02-21T02:23:19.541Z,17.17
2019-02-21T02:25:48.021Z,19.53
2019-02-21T02:28:16.476Z,17.63
2019-02-21T02:30:44.969Z,18.00
2019-02-21T02:33:13.572Z,18.67
2019-02-21T02:35:42.054Z,19.97
2019-02-21T02:38:10.917Z,20.93
2019-02-21T02:40:39.516Z,23.00
2019-02-21T02:43:08.052Z,19.43
2019-02-21T02:45:36.849Z,19.50
2019-02-21T02:48:05.565Z,20.37
2019-02-21T02:50:34.226Z,22.53
2019-02-21T02:53:02.747Z,22.67
2019-02-21T02:55:31.264Z,22.03
2019-02-21T02:57:59.780Z,20.80
2019-02-21T03:00:28.313Z,21.63
2019-02-21T03:02:56.841Z,22.73
2019-02-21T03:05:25.414Z,22.50
2019-02-21T03:07:53.972Z,22.87
2019-02-21T03:10:22.520Z,20.83
2019-02-21T03:12:51.018Z,22.07
2019-02-21T03:15:19.492Z,24.10
2019-02-21T03:17:47.978Z,25.30
2019-02-21T03:20:16.569Z,24.17
2019-02-21T03:22:45.120Z,23.93
2019-02-21T03:25:13.838Z,23.73
2019-02-21T03:27:42.556Z,23.07
2019-02-21T03:30:12.457Z,20.40
2019-02-21T03:32:41.650Z,22.77
2019-02-21T03:35:10.781Z,22.17
2019-02-21T03:37:39.614Z,24.57
2019-02-21T03:40:09.925Z,25.27
2019-02-21T03:42:38.496Z,26.50
2019-02-21T03:45:12.500Z,25.00
2019-02-21T03:47:41.071Z,25.33
2019-02-21T03:50:11.366Z,25.87
2019-02-21T03:52:39.975Z,25.70
2019-02-21T03:55:08.970Z,25.27
2019-02-21T03:57:37.995Z,25.13
2019-02-21T04:00:09.164Z,25.50
2019-02-21T04:02:37.729Z,26.50
2019-02-21T04:05:07.790Z,25.67
2019-02-21T04:07:36.388Z,25.53
2019-02-21T04:10:24.264Z,26.27
2019-02-21T04:12:52.728Z,26.00
2019-02-21T04:15:21.265Z,26.47
2019-02-21T04:17:50.077Z,25.93
2019-02-21T04:20:18.670Z,25.67
2019-02-21T04:22:47.235Z,26.60
2019-02-21T04:25:15.729Z,26.20
2019-02-21T04:27:44.181Z,27.53
2019-02-21T04:30:12.713Z,26.23
2019-02-21T04:32:41.286Z,25.30
2019-02-21T04:35:09.753Z,25.40
2019-02-21T04:37:38.232Z,25.30
2019-02-21T04:40:07.256Z,26.03
2019-02-21T04:42:35.869Z,25.70
2019-02-21T04:45:04.968Z,24.00
2019-02-21T04:47:33.600Z,24.93
2019-02-21T04:50:02.067Z,25.87
2019-02-21T04:52:30.574Z,23.30
2019-02-21T04:54:59.116Z,25.30
2019-02-21T04:57:27.757Z,27.27
2019-02-21T04:59:56.264Z,26.53
2019-02-21T05:02:28.921Z,27.50
2019-02-21T05:04:54.977Z,27.93
2019-02-21T05:07:23.452Z,28.27
2019-02-21T05:09:57.898Z,28.23
2019-02-21T05:12:22.185Z,27.27
2019-02-21T05:14:50.650Z,27.53
2019-02-21T05:17:19.208Z,27.97
2019-02-21T05:19:47.699Z,27.17
2019-02-21T05:22:16.291Z,29.57
2019-02-21T05:24:44.820Z,29.73
2019-02-21T05:27:14.931Z,28.63
2019-02-21T05:29:43.485Z,27.13
2019-02-21T05:32:13.665Z,28.03
2019-02-21T05:34:55.732Z,26.53
2019-02-21T05:37:31.873Z,26.17
2019-02-21T05:40:07.648Z,26.23
2019-02-21T05:42:52.795Z,25.20
2019-02-21T05:45:25.892Z,25.27
2019-02-21T05:48:12.532Z,25.50
2019-02-21T05:50:51.977Z,25.03
2019-02-21T05:53:34.393Z,24.53
2019-02-21T05:56:13.606Z,24.33
2019-02-21T05:58:52.588Z,26.10
2019-02-21T06:01:22.716Z,25.07
2019-02-21T06:04:04.761Z,25.33
2019-02-21T06:06:44.164Z,25.57
2019-02-21T06:09:23.461Z,24.70
2019-02-21T06:11:56.790Z,25.27
2019-02-21T06:14:39.197Z,25.80
2019-02-21T06:17:24.052Z,26.23
2019-02-21T06:19:56.912Z,26.87
2019-02-21T06:22:35.803Z,26.40
2019-02-21T06:25:09.267Z,25.83
2019-02-21T06:27:39.500Z,25.53
2019-02-21T06:30:13.477Z,28.13
2019-02-21T06:32:42.046Z,30.60
2019-02-21T06:35:11.183Z,33.47
2019-02-21T06:37:39.753Z,31.27
2019-02-21T06:40:08.365Z,30.77
2019-02-21T06:42:36.831Z,32.50
2019-02-21T06:45:07.054Z,31.83
2019-02-21T06:47:35.622Z,32.70
2019-02-21T06:50:05.173Z,34.00
2019-02-21T06:52:33.675Z,32.40
2019-02-21T06:55:02.649Z,33.43
2019-02-21T06:57:31.277Z,32.67
2019-02-21T06:59:59.768Z,34.17
2019-02-21T07:02:28.382Z,33.17
2019-02-21T07:04:58.017Z,32.83
2019-02-21T07:07:26.525Z,32.63
2019-02-21T07:09:55.017Z,36.13
2019-02-21T07:12:23.562Z,36.50
2019-02-21T07:14:52.113Z,33.67
2019-02-21T07:17:20.606Z,35.87
2019-02-21T07:19:49.078Z,35.73
2019-02-21T07:22:20.045Z,35.23
2019-02-21T07:24:49.489Z,36.03
2019-02-21T07:27:18.017Z,36.60
2019-02-21T07:29:46.804Z,38.47
2019-02-21T07:32:15.269Z,39.23
2019-02-21T07:34:43.746Z,37.67
2019-02-21T07:37:18.734Z,37.47
2019-02-21T07:39:42.583Z,38.40
2019-02-21T07:42:11.037Z,38.57
2019-02-21T07:44:39.518Z,38.80
2019-02-21T07:47:07.990Z,37.60
2019-02-21T07:49:36.517Z,40.00
2019-02-21T07:52:05.593Z,36.80
2019-02-21T07:54:34.244Z,38.03
2019-02-21T07:57:02.825Z,38.10
2019-02-21T07:59:31.325Z,38.27
2019-02-21T08:01:59.846Z,39.33
2019-02-21T08:04:28.437Z,38.23
2019-02-21T08:06:56.898Z,36.33
2019-02-21T08:09:28.016Z,35.70
2019-02-21T08:11:56.627Z,33.37
2019-02-21T08:14:25.090Z,33.93
2019-02-21T08:16:56.002Z,34.83
2019-02-21T08:19:23.776Z,36.80
2019-02-21T08:21:52.491Z,34.97
2019-02-21T08:24:21.007Z,34.53
2019-02-21T08:26:49.513Z,36.37
2019-02-21T08:29:20.665Z,33.97
2019-02-21T08:31:48.330Z,34.63
2019-02-21T08:34:21.149Z,35.37
2019-02-21T08:36:49.680Z,35.13
2019-02-21T08:39:18.151Z,38.10
2019-02-21T08:41:46.654Z,37.73
2019-02-21T08:44:15.213Z,33.33
2019-02-21T08:46:43.678Z,36.10
2019-02-21T08:49:12.263Z,35.70
2019-02-21T08:51:40.816Z,39.33
2019-02-21T08:54:11.414Z,39.87
2019-02-21T08:56:39.697Z,38.13
2019-02-21T08:59:08.210Z,38.83
2019-02-21T09:01:36.806Z,38.93
2019-02-21T09:04:10.441Z,42.00
2019-02-21T09:06:35.656Z,39.70
2019-02-21T09:09:05.037Z,38.80
2019-02-21T09:11:33.561Z,33.07
2019-02-21T09:14:02.112Z,37.07
2019-02-21T09:16:30.682Z,37.57
2019-02-21T09:18:59.242Z,36.63
2019-02-21T09:21:27.755Z,35.30
2019-02-21T09:23:56.783Z,35.37
2019-02-21T09:26:25.508Z,40.40
2019-02-21T09:28:53.983Z,37.33
2019-02-21T09:31:22.565Z,38.17
2019-02-21T09:33:51.152Z,34.63
2019-02-21T09:36:19.676Z,35.80
2019-02-21T09:38:48.178Z,38.00
2019-02-21T09:41:16.747Z,36.77
2019-02-21T09:43:45.212Z,36.20
2019-02-21T09:46:13.688Z,29.87
2019-02-21T09:48:42.232Z,32.03
2019-02-21T09:51:10.700Z,34.87
2019-02-21T09:53:39.281Z,34.43
2019-02-21T09:56:07.975Z,40.43
2019-02-21T09:58:36.483Z,34.30
2019-02-21T10:01:04.995Z,33.67
2019-02-21T10:03:33.485Z,35.07
2019-02-21T10:06:01.947Z,36.60
2019-02-21T10:08:30.522Z,40.07
2019-02-21T10:11:00.856Z,37.07
2019-02-21T10:13:29.200Z,36.40
2019-02-21T10:15:58.659Z,32.17
2019-02-21T10:18:27.283Z,26.83
2019-02-21T10:20:55.754Z,36.07
2019-02-21T10:23:24.452Z,35.93
2019-02-21T10:25:53.072Z,33.00
2019-02-21T10:28:21.563Z,32.47
2019-02-21T10:30:50.032Z,31.33
2019-02-21T10:33:18.528Z,30.47
2019-02-21T10:35:47.011Z,27.60
2019-02-21T10:38:15.629Z,29.83
2019-02-21T10:40:44.124Z,35.13
2019-02-21T10:43:12.584Z,33.00
2019-02-21T10:45:47.776Z,32.13
2019-02-21T10:48:11.405Z,32.70
2019-02-21T10:50:39.918Z,30.10
2019-02-21T10:53:08.456Z,33.73
2019-02-21T10:55:36.944Z,27.80
2019-02-21T10:58:05.411Z,30.70
2019-02-21T11:00:34.084Z,29.10
2019-02-21T11:03:02.693Z,30.30
2019-02-21T11:05:31.213Z,23.33
2019-02-21T11:07:59.672Z,29.00
2019-02-21T11:10:30.094Z,29.07
2019-02-21T11:12:58.668Z,27.67
2019-02-21T11:15:27.767Z,27.15
2019-02-21T11:17:56.221Z,29.03
2019-02-21T11:20:24.836Z,26.00
2019-02-21T11:22:53.370Z,25.63
2019-02-21T11:25:21.856Z,28.23
2019-02-21T11:27:50.608Z,26.70
2019-02-21T11:30:20.325Z,26.80
2019-02-21T11:32:48.784Z,24.87
2019-02-21T11:35:17.314Z,28.77
2019-02-21T11:37:47.348Z,28.77
2019-02-21T11:40:17.778Z,26.03
2019-02-21T11:42:46.863Z,28.37
2019-02-21T11:45:16.565Z,24.27
2019-02-21T11:47:45.078Z,29.90
2019-02-21T11:50:17.996Z,27.27
2019-02-21T11:52:46.808Z,22.33
2019-02-21T11:55:18.380Z,25.90
2019-02-21T11:57:46.965Z,27.07
2019-02-21T12:00:21.280Z,25.13
2019-02-21T12:02:49.891Z,23.40
2019-02-21T12:05:30.223Z,26.93
2019-02-21T12:07:48.889Z,25.23
2019-02-21T12:10:17.448Z,20.90
2019-02-21T12:12:45.936Z,25.43
2019-02-21T12:15:15.738Z,24.97
2019-02-21T12:17:44.240Z,24.07
2019-02-21T12:20:17.685Z,23.97
2019-02-21T12:22:46.337Z,20.73
2019-02-21T12:25:20.526Z,23.67
2019-02-21T12:27:49.014Z,23.50
2019-02-21T12:30:19.393Z,21.90
2019-02-21T12:32:48.030Z,19.90
2019-02-21T12:35:16.594Z,14.80
2019-02-21T12:37:45.191Z,19.27
2019-02-21T12:40:16.062Z,20.13
2019-02-21T12:42:44.673Z,21.37
2019-02-21T12:45:15.536Z,20.03
2019-02-21T12:47:50.638Z,15.07
2019-02-21T12:50:14.930Z,21.37
2019-02-21T12:52:43.566Z,23.57
2019-02-21T12:55:13.395Z,21.70
2019-02-21T12:57:41.864Z,21.77
2019-02-21T13:00:19.493Z,22.63
2019-02-21T13:02:48.038Z,19.03
2019-02-21T13:05:16.655Z,20.33
2019-02-21T13:07:45.224Z,22.17
2019-02-21T13:10:16.613Z,22.93
2019-02-21T13:12:45.118Z,21.67
2019-02-21T13:15:14.845Z,22.97
2019-02-21T13:17:43.390Z,20.97
2019-02-21T13:20:13.717Z,23.03
2019-02-21T13:22:42.258Z,22.00
2019-02-21T13:25:18.251Z,22.67
2019-02-21T13:27:46.788Z,22.27
2019-02-21T13:30:16.811Z,21.87
2019-02-21T13:32:45.441Z,21.40
2019-02-21T13:35:14.620Z,19.63
2019-02-21T13:37:43.174Z,23.23
2019-02-21T13:40:16.567Z,19.63
2019-02-21T13:42:45.168Z,20.37
2019-02-21T13:45:17.476Z,21.93
2019-02-21T13:47:45.686Z,21.67
2019-02-21T13:50:16.122Z,18.60
2019-02-21T13:52:44.605Z,22.73
2019-02-21T13:55:13.215Z,22.63
2019-02-21T13:57:41.716Z,20.07
2019-02-21T14:00:13.388Z,21.27
2019-02-21T14:02:42.008Z,20.73
2019-02-21T14:05:10.983Z,15.53
2019-02-21T14:07:39.519Z,21.70
2019-02-21T14:10:13.328Z,20.30
2019-02-21T14:12:41.983Z,21.03
2019-02-21T14:15:18.781Z,18.07
2019-02-21T14:17:47.384Z,20.77
2019-02-21T14:20:15.964Z,21.30
2019-02-21T14:22:44.492Z,21.17
2019-02-21T14:25:13.051Z,18.70
2019-02-21T14:27:41.588Z,20.70
2019-02-21T14:30:15.816Z,20.30
2019-02-21T14:32:44.420Z,20.67
2019-02-21T14:35:14.342Z,19.47
2019-02-21T14:37:42.921Z,21.90
2019-02-21T14:40:12.989Z,20.37
2019-02-21T14:42:41.989Z,19.40
2019-02-21T14:45:13.826Z,19.53
2019-02-21T14:47:42.429Z,21.07
2019-02-21T14:50:12.301Z,21.07
2019-02-21T14:52:40.961Z,20.67
2019-02-21T14:55:14.632Z,15.73
2019-02-21T14:57:43.163Z,18.40
2019-02-21T15:00:15.977Z,19.40
2019-02-21T15:02:44.479Z,18.80
2019-02-21T15:05:13.035Z,16.23
2019-02-21T15:07:41.587Z,18.23
2019-02-21T15:10:11.363Z,17.80
2019-02-21T15:12:39.847Z,18.70
2019-02-21T15:15:11.432Z,16.43
2019-02-21T15:17:40.001Z,15.63
2019-02-21T15:20:11.242Z,15.83
2019-02-21T15:22:39.749Z,15.70
2019-02-21T15:25:09.397Z,15.27
2019-02-21T15:27:37.948Z,16.97
2019-02-21T15:30:09.523Z,17.07
2019-02-21T15:32:38.130Z,16.83
2019-02-21T15:35:06.706Z,16.60
2019-02-21T15:37:35.267Z,15.70
2019-02-21T15:40:08.780Z,17.73
2019-02-21T15:42:37.483Z,11.90
2019-02-21T15:45:21.894Z,16.43
2019-02-21T15:47:41.799Z,14.23
2019-02-21T15:50:12.701Z,16.00
2019-02-21T15:52:41.725Z,16.70
2019-02-21T15:55:13.256Z,16.00
2019-02-21T15:57:41.791Z,16.00
2019-02-21T16:00:13.032Z,10.90
2019-02-21T16:02:41.621Z,12.73
2019-02-21T16:05:10.370Z,13.57
2019-02-21T16:07:38.956Z,15.83
2019-02-21T16:10:27.689Z,15.67
2019-02-21T16:12:56.897Z,12.50
2019-02-21T16:15:26.076Z,15.83
2019-02-21T16:17:54.578Z,14.60
2019-02-21T16:20:23.050Z,15.83
2019-02-21T16:22:51.524Z,15.80
2019-02-21T16:25:28.864Z,15.40
2019-02-21T16:27:57.344Z,15.07
2019-02-21T16:30:26.039Z,15.67
2019-02-21T16:32:54.579Z,15.00
2019-02-21T16:35:23.188Z,15.07
2019-02-21T16:37:51.672Z,15.93
2019-02-21T16:40:20.942Z,15.67
2019-02-21T16:42:49.641Z,14.30
2019-02-21T16:45:20.077Z,15.20
2019-02-21T16:47:50.252Z,15.73
2019-02-21T16:50:29.252Z,14.27
2019-02-21T16:52:48.955Z,13.97
2019-02-21T16:55:21.880Z,13.50
2019-02-21T16:57:50.469Z,14.40
2019-02-21T17:00:23.027Z,13.50
2019-02-21T17:02:51.518Z,10.93
2019-02-21T17:05:20.352Z,13.87
2019-02-21T17:07:48.916Z,14.23
2019-02-21T17:10:17.620Z,13.17
2019-02-21T17:12:46.198Z,13.60
2019-02-21T17:15:16.804Z,13.27
2019-02-21T17:17:45.606Z,12.93
2019-02-21T17:20:16.880Z,12.13
2019-02-21T17:22:45.386Z,11.97
2019-02-21T17:25:17.070Z,13.27
2019-02-21T17:27:50.187Z,12.77
2019-02-21T17:30:19.543Z,12.43
2019-02-21T17:32:48.159Z,11.60
2019-02-21T17:35:16.869Z,11.83
2019-02-21T17:37:45.444Z,11.87
2019-02-21T17:40:21.949Z,11.73
2019-02-21T17:42:50.533Z,11.47
2019-02-21T17:45:19.006Z,11.77
2019-02-21T17:47:47.552Z,10.97
2019-02-21T17:50:17.586Z,11.53
2019-02-21T17:52:46.115Z,11.20
2019-02-21T17:55:15.917Z,10.97
2019-02-21T17:57:44.568Z,11.20
2019-02-21T18:00:32.844Z,11.80
2019-02-21T18:03:01.357Z,10.30
2019-02-21T18:05:29.823Z,11.43
2019-02-21T18:07:58.301Z,11.30
2019-02-21T18:10:26.936Z,11.17
2019-02-21T18:12:55.484Z,9.67
2019-02-21T18:15:24.056Z,10.93
2019-02-21T18:17:52.608Z,10.67
2019-02-21T18:20:21.096Z,10.93
2019-02-21T18:22:49.564Z,11.70
2019-02-21T18:25:40.864Z,11.23
2019-02-21T18:28:09.437Z,10.40
2019-02-21T18:30:37.970Z,9.40
2019-02-21T18:33:06.653Z,8.37
2019-02-21T18:35:35.154Z,9.63
2019-02-21T18:38:03.685Z,11.37
2019-02-21T18:40:32.896Z,9.57
2019-02-21T18:43:01.368Z,13.47
2019-02-21T18:45:30.285Z,11.05
2019-02-21T18:47:58.771Z,12.47
2019-02-21T18:50:37.466Z,13.47
2019-02-21T18:52:57.428Z,11.90
2019-02-21T18:55:26.041Z,14.93
2019-02-21T18:57:54.532Z,15.43
2019-02-21T19:00:27.065Z,16.37
2019-02-21T19:02:55.608Z,16.00
2019-02-21T19:05:34.961Z,16.87
2019-02-21T19:08:03.362Z,14.87
2019-02-21T19:10:24.689Z,15.30
2019-02-21T19:12:53.174Z,15.13
2019-02-21T19:15:22.783Z,17.20
2019-02-21T19:17:51.265Z,19.23
2019-02-21T19:20:21.101Z,17.97
2019-02-21T19:22:50.172Z,16.27
2019-02-21T19:25:18.770Z,19.23
2019-02-21T19:27:47.323Z,20.13
2019-02-21T19:30:18.924Z,18.80
2019-02-21T19:32:47.472Z,17.87
2019-02-21T19:35:16.684Z,19.23
2019-02-21T19:37:45.184Z,17.13
2019-02-21T19:40:14.173Z,19.90
2019-02-21T19:42:42.736Z,20.77
2019-02-21T19:45:11.242Z,16.23
2019-02-21T19:47:39.856Z,17.00
2019-02-21T19:50:09.595Z,16.20
2019-02-21T19:52:38.164Z,17.27
2019-02-21T19:55:09.078Z,19.10
2019-02-21T19:57:37.703Z,14.40
2019-02-21T20:00:09.360Z,20.23
2019-02-21T20:02:37.993Z,16.77
2019-02-21T20:05:07.060Z,13.60
2019-02-21T20:07:35.603Z,17.83
2019-02-21T20:10:05.715Z,16.67
2019-02-21T20:12:36.171Z,16.00
2019-02-21T20:15:06.880Z,19.33
2019-02-21T20:17:35.460Z,19.60
2019-02-21T20:20:06.518Z,16.97
2019-02-21T20:22:35.025Z,18.57
2019-02-21T20:25:04.209Z,16.80
2019-02-21T20:27:32.704Z,18.33
2019-02-21T20:30:01.217Z,18.20
2019-02-21T20:32:29.789Z,19.13
2019-02-21T20:34:58.670Z,17.07
2019-02-21T20:37:27.270Z,18.67
2019-02-21T20:39:55.778Z,18.87
2019-02-21T20:42:24.403Z,18.83
2019-02-21T20:44:52.861Z,19.40
2019-02-21T20:47:21.329Z,19.13
2019-02-21T20:49:49.910Z,19.13
2019-02-21T20:52:18.377Z,18.50
2019-02-21T20:54:46.928Z,18.30
2019-02-21T20:57:15.439Z,18.67
2019-02-21T20:59:44.074Z,10.80
2019-02-21T21:02:31.934Z,18.33
2019-02-21T21:05:00.428Z,18.83
2019-02-21T21:07:28.937Z,18.00
2019-02-21T21:09:57.509Z,18.10
2019-02-21T21:12:26.073Z,17.53
2019-02-21T21:14:54.544Z,16.60
2019-02-21T21:17:23.095Z,15.73
2019-02-21T21:19:51.708Z,18.40
2019-02-21T21:22:20.176Z,19.50
2019-02-21T21:24:48.695Z,17.10
2019-02-21T21:27:17.211Z,20.20
2019-02-21T21:29:45.696Z,18.57
2019-02-21T21:32:14.202Z,18.33
2019-02-21T21:34:42.790Z,20.67
2019-02-21T21:37:11.284Z,20.97
2019-02-21T21:39:40.105Z,20.23
2019-02-21T21:42:08.661Z,20.17
2019-02-21T21:44:37.141Z,19.57
2019-02-21T21:47:05.815Z,20.27
2019-02-21T21:49:34.418Z,21.87
2019-02-21T21:52:02.961Z,20.73
2019-02-21T21:54:31.625Z,20.92
2019-02-21T21:57:00.088Z,20.73
2019-02-21T21:59:28.544Z,20.13
2019-02-21T22:01:57.053Z,20.23
2019-02-21T22:04:25.525Z,20.10
2019-02-21T22:06:54.112Z,20.17
2019-02-21T22:09:22.606Z,20.20
2019-02-21T22:11:51.160Z,19.80
2019-02-21T22:14:19.648Z,21.00
2019-02-21T22:16:48.123Z,20.80
2019-02-21T22:19:16.630Z,20.17
2019-02-21T22:21:45.099Z,20.87
2019-02-21T22:24:13.578Z,20.53
2019-02-21T22:26:42.153Z,20.60
2019-02-21T22:29:10.634Z,20.53
2019-02-21T22:31:39.096Z,20.60
2019-02-21T22:34:07.616Z,19.77
2019-02-21T22:36:36.133Z,19.93
2019-02-21T22:39:15.681Z,21.63
2019-02-21T22:41:36.852Z,22.03
2019-02-21T22:44:06.967Z,20.83
2019-02-21T22:46:35.481Z,21.00
2019-02-21T22:49:04.040Z,20.73
2019-02-21T22:51:32.519Z,21.80
2019-02-21T22:54:00.997Z,19.83
2019-02-21T22:56:29.485Z,20.83
2019-02-21T22:58:58.119Z,19.10
2019-02-21T23:01:29.239Z,21.60
2019-02-21T23:04:01.049Z,20.63
2019-02-21T23:06:38.364Z,21.07
2019-02-21T23:09:10.251Z,21.87
2019-02-21T23:11:38.722Z,20.30
2019-02-21T23:14:07.189Z,21.00
2019-02-21T23:16:35.736Z,21.37
2019-02-21T23:19:04.313Z,22.90
2019-02-21T23:21:32.782Z,21.57
2019-02-21T23:24:01.339Z,22.37
2019-02-21T23:26:30.516Z,22.43
2019-02-21T23:28:58.985Z,22.30
2019-02-21T23:31:27.464Z,22.10
2019-02-21T23:33:57.581Z,22.23
2019-02-21T23:36:26.050Z,23.43
2019-02-21T23:38:54.540Z,24.77
2019-02-21T23:41:23.010Z,22.83
2019-02-21T23:43:51.492Z,23.93
2019-02-21T23:46:20.061Z,23.93
2019-02-21T23:48:48.520Z,23.80
2019-02-21T23:51:17.018Z,23.37
2019-02-21T23:53:45.479Z,23.50
2019-02-21T23:56:13.954Z,24.40
2019-02-21T23:58:42.465Z,24.00
